Flight Track Log - Related Links

Times and Time Zones

All times are in EDT time to prevent confusion due to time zone crossing. See the QXE2054 flight status page for this flight to view local times or setup timezone preferences in your user account.

Time Position Orientation Groundspeed Altitude Reporting Facility
EDT Latitude Longitude Course Direction KTS MPH feet Rate Location/Type
Mon 08:07:00 PM 46.0189 -122.6547 350° North  Level FlightAware Approximate
Mon 08:08:00 PM 46.0914 -122.6683 352° North  Level FlightAware Approximate
Mon 08:09:00 PM 46.1639 -122.6828 352° North  Level FlightAware Approximate
Mon 08:10:00 PM 46.2368 -122.6934 354° North  Level FlightAware Approximate
Mon 08:11:00 PM 46.3084 -122.7125 341° North  Level FlightAware Approximate
Mon 08:12:00 PM 46.3811 -122.7196 358° North  Level FlightAware Approximate
Mon 08:13:00 PM 46.4544 -122.7229 358° North  Level FlightAware Approximate
Mon 08:14:00 PM 46.5276 -122.7262 358° North  Level FlightAware Approximate
Mon 08:15:00 PM 46.6008 -122.7296 358° North  Level FlightAware Approximate
Mon 08:16:00 PM 46.6740 -122.7329 358° North  Level FlightAware Approximate
Mon 08:17:00 PM 46.7473 -122.7333 North  Level FlightAware Approximate
Mon 08:18:00 PM 46.8108 -122.6967 42° Northeast  Level FlightAware Approximate
Mon 08:19:00 PM 46.8684 -122.6310 42° Northeast  Level FlightAware Approximate
Mon 08:20:00 PM 46.9233 -122.5601 34° Northeast  Level FlightAware Approximate
Mon 08:21:00 PM 46.9911 -122.5211 19° North  Level FlightAware Approximate
Mon 08:22:00 PM 47.0630 -122.5009 10° North  Level FlightAware Approximate
Mon 08:23:00 PM 47.1340 -122.4765 North  Level FlightAware Approximate
Mon 08:24:00 PM 47.2068 -122.4667 North  Level FlightAware Approximate
Mon 08:25:00 PM 47.2699 -122.4600 North  Level FlightAware Approximate
Mon 08:26:00 PM 47.3330 -122.4521 North  Level FlightAware Approximate
Mon 08:27:00 PM 47.3962 -122.4500 North  Level FlightAware Approximate
Mon 08:28:00 PM 47.4595 -122.4500 North  Level FlightAware Approximate
Mon 08:29:00 PM 47.4958 -122.4330 110° East  Level FlightAware Approximate
Mon 08:30:00 PM 47.4721 -122.3645 132° Southeast  Level FlightAware Approximate
Mon 08:31:00 PM 47.4499 -122.3118 132° Southeast  Level Estimated
Mon 08:32:00 PM 47.4499 -122.3118 154° Southeast  Level Estimated
Mon 08:33:00 PM 47.4499 -122.3118 132° Southeast  Level Estimated
Mon 08:34:00 PM 47.4499 -122.3118 154° Southeast  Level Estimated
Mon 08:35:00 PM 47.4499 -122.3118 132° Southeast  Level Estimated
Mon 08:36:00 PM 47.4499 -122.3118 154° Southeast  Level Estimated
Mon 08:37:00 PM 47.4499 -122.3118 132° Southeast  Level Estimated
Mon 08:38:00 PM 47.4499 -122.3118 154° Southeast  Level Estimated
Mon 08:39:00 PM 47.4499 -122.3118 132° Southeast  Level Estimated
Mon 08:40:00 PM 47.4499 -122.3118 180° South  Level Estimated
Mon 08:41:00 PM 47.4499 -122.3118 North  Level Estimated
Mon 08:42:00 PM 47.4499 -122.3118 180° South  Level Estimated
Mon 08:43:00 PM 47.4499 -122.3118 34° Northeast  Level Estimated
Mon 08:44:00 PM 47.4499 -122.3118 34° Northeast  Level Estimated
Mon 08:45:00 PM 47.4499 -122.3118 34° Northeast  Level Estimated
Mon 08:46:00 PM 47.4499 -122.3118 34° Northeast  Level Estimated
Mon 08:47:00 PM 47.4499 -122.3118 34° Northeast  Level Estimated
Mon 08:48:00 PM 47.4499 -122.3118 34° Northeast  Level Estimated
Mon 08:49:00 PM 47.4499 -122.3118 34° Northeast  Level Estimated
Mon 08:50:00 PM 47.4499 -122.3118 34° Northeast  Level Estimated
Mon 08:51:00 PM 47.4499 -122.3118 34° Northeast  Level Estimated
Mon 08:52:00 PM 47.4499 -122.3118 34° Northeast  Level Estimated
Mon 08:53:00 PM 47.4499 -122.3118 34° Northeast  Level Estimated
Mon 08:54:00 PM 47.4499 -122.3118 34° Northeast  Level Estimated

Login

Don't have an account? Register now (free) for customized features, flight alerts, and more!